This is the latest recevied weather packets stored in our database for station/object AE5TC. If no packets are shown the sender has not sent any weather packets the latest 10 day(s).
| Time | Temp. | Humidity | Pressure | Rain* | Wind** | Luminosity | Snow |
|---|---|---|---|---|---|---|---|
| 1778264793 | 30° C | 84% | 1012.4 hPa | 0 mm | - | 836 W/m² | - |
| 1778264490 | 28.89° C | 86% | 1012.5 hPa | 0 mm | - | 819 W/m² | - |
| 1778264185 | 28.89° C | 86% | 1012.5 hPa | 0 mm | - | 837 W/m² | - |
| 1778263883 | 28.33° C | 86% | 1012.7 hPa | 0 mm | - | 788 W/m² | - |
| 1778263579 | 28.89° C | 85% | 1012.7 hPa | 0 mm | - | 526 W/m² | - |
| 1778263276 | 28.89° C | 85% | 1012.6 hPa | 0 mm | - | 822 W/m² | - |
| 1778262973 | 28.89° C | 86% | 1012.8 hPa | 0 mm | - | 696 W/m² | - |
| 1778262670 | 28.89° C | 85% | 1012.8 hPa | 0 mm | - | 700 W/m² | - |
| 1778262367 | 28.89° C | 84% | 1013 hPa | 0 mm | - | 663 W/m² | - |
| 1778262064 | 28.33° C | 86% | 1013.2 hPa | 0 mm | - | 616 W/m² | - |
| 1778261761 | 28.33° C | 85% | 1012.8 hPa | 0 mm | - | 360 W/m² | - |
| 1778261457 | 27.78° C | 87% | 1013.1 hPa | 0 mm | - | 463 W/m² | - |
| 1778261154 | 27.78° C | 86% | 1013.1 hPa | 0 mm | - | 388 W/m² | - |
| 1778260851 | 27.22° C | 87% | 1013.2 hPa | 0 mm | - | 272 W/m² | - |
| 1778260547 | 27.78° C | 88% | 1013.1 hPa | 0 mm | - | 379 W/m² | - |
| 1778260244 | 27.22° C | 89% | 1013.3 hPa | 0 mm | - | 341 W/m² | - |
| 1778259941 | 27.22° C | 89% | 1013.4 hPa | 0 mm | - | 476 W/m² | - |
| 1778259638 | 26.67° C | 90% | 1013.6 hPa | 0 mm | - | 331 W/m² | - |
| 1778259335 | 26.11° C | 91% | 1013.5 hPa | 0 mm | - | 180 W/m² | - |
| 1778259032 | 26.67° C | 90% | 1013.5 hPa | 0 mm | - | 138 W/m² | - |
| 1778258728 | 27.22° C | 88% | 1013.7 hPa | 0 mm | - | 240 W/m² | - |
| 1778258425 | 27.22° C | 88% | 1013.7 hPa | 0 mm | - | 263 W/m² | - |
| 1778258123 | 27.78° C | 87% | 1013.8 hPa | 0 mm | - | 263 W/m² | - |
| 1778257819 | 27.22° C | 88% | 1013.6 hPa | 0 mm | - | 539 W/m² | - |
| 1778257516 | 26.11° C | 91% | 1013.9 hPa | 0 mm | - | 337 W/m² | - |
* Rain latest hour (hover to see other rain measurements)
** Current wind speed in m/s (hover to see current wind gust speed)